Time;durP1;ratioP1;P1;durP2;ratioP2;P2;SDS_P1;SDS_P2;PMS_P1;PMS_P2;Temp;Humidity;BMP_temperature;BMP_pressure;BME280_temperature;BME280_humidity;BME280_pressure;Samples;Min_cycle;Max_cycle;Signal;HPM_P1;HPM_P2
2023/04/16 00:03:29;;;;;;;;;;;;;;;8.96;71.57031;102383.3;;;;-73
2023/04/16 00:05:07;;;;;;;5.5;1.6;;;;;;;;;;;;;-73
2023/04/16 00:08:27;;;;;;;;;;;;;;;8.93;71.32324;102380.6;;;;-72
2023/04/16 00:13:29;;;;;;;;;;;;;;;8.91;71.66113;102379;;;;-72
2023/04/16 00:18:28;;;;;;;;;;;;;;;8.9;71.44922;102373;;;;-73
2023/04/16 00:23:27;;;;;;;;;;;;;;;8.87;71.48926;102370.8;;;;-73
2023/04/16 00:28:30;;;;;;;;;;;;;;;8.86;72.0293;102368.2;;;;-74
2023/04/16 00:33:29;;;;;;;;;;;;;;;8.84;72.19238;102362.6;;;;-73
2023/04/16 00:35:15;;;;;;;7.6;1.6;;;;;;;;;;;;;-73
2023/04/16 00:38:31;;;;;;;;;;;;;;;8.81;72.38672;102357.6;;;;-72
2023/04/16 00:43:30;;;;;;;;;;;;;;;8.81;72.49707;102358;;;;-75
2023/04/16 00:48:27;;;;;;;;;;;;;;;8.8;72.18457;102360.7;;;;-73
2023/04/16 00:53:30;;;;;;;;;;;;;;;8.77;72.32324;102369.9;;;;-73
2023/04/16 00:58:30;;;;;;;;;;;;;;;8.77;72.58887;102370.7;;;;-73
2023/04/16 01:03:37;;;;;;;;;;;;;;;8.76;72.52051;102374.1;;;;-74
2023/04/16 01:05:10;;;;;;;9;2;;;;;;;;;;;;;-72
2023/04/16 01:08:27;;;;;;;;;;;;;;;8.74;72.61719;102371.3;;;;-72
2023/04/16 01:13:27;;;;;;;;;;;;;;;8.73;72.66895;102375.1;;;;-72
2023/04/16 01:18:30;;;;;;;;;;;;;;;8.73;72.62695;102376;;;;-72
2023/04/16 01:23:29;;;;;;;;;;;;;;;8.73;72.70215;102376.4;;;;-72
2023/04/16 01:28:29;;;;;;;;;;;;;;;8.72;72.66895;102378.9;;;;-72
2023/04/16 01:33:27;;;;;;;;;;;;;;;8.72;73.3418;102378.6;;;;-72
2023/04/16 01:35:10;;;;;;;4.8;1.4;;;;;;;;;;;;;-74
2023/04/16 01:38:27;;;;;;;;;;;;;;;8.69;73.0166;102380.7;;;;-72
2023/04/16 01:43:34;;;;;;;;;;;;;;;8.68;73.33691;102384.3;;;;-72
2023/04/16 01:48:28;;;;;;;;;;;;;;;8.7;74.0127;102379.2;;;;-72
2023/04/16 01:53:27;;;;;;;;;;;;;;;8.68;73.34668;102383.9;;;;-72
2023/04/16 01:58:29;;;;;;;;;;;;;;;8.66;73.50879;102382.3;;;;-72
2023/04/16 02:03:27;;;;;;;;;;;;;;;8.66;73.70703;102379.6;;;;-72
2023/04/16 02:05:11;;;;;;;3.5;1.1;;;;;;;;;;;;;-72
2023/04/16 02:08:28;;;;;;;;;;;;;;;8.67;73.83203;102381.7;;;;-72
2023/04/16 02:13:29;;;;;;;;;;;;;;;8.71;74.85352;102383.5;;;;-72
2023/04/16 02:18:27;;;;;;;;;;;;;;;8.67;74.11719;102386.4;;;;-73
2023/04/16 02:23:27;;;;;;;;;;;;;;;8.66;74.68945;102388.2;;;;-73
2023/04/16 02:28:28;;;;;;;;;;;;;;;8.69;74.91504;102389.5;;;;-72
2023/04/16 02:33:30;;;;;;;;;;;;;;;8.66;75.20801;102398;;;;-73
2023/04/16 02:35:13;;;;;;;5.2;1.5;;;;;;;;;;;;;-73
2023/04/16 02:38:27;;;;;;;;;;;;;;;8.64;74.56543;102399.9;;;;-73
2023/04/16 02:43:28;;;;;;;;;;;;;;;8.64;75.09473;102405.9;;;;-73
2023/04/16 02:48:27;;;;;;;;;;;;;;;8.63;74.24512;102408.6;;;;-73
2023/04/16 02:53:27;;;;;;;;;;;;;;;8.61;74.8584;102410.4;;;;-72
2023/04/16 02:58:27;;;;;;;;;;;;;;;8.64;74.79688;102412;;;;-71
2023/04/16 03:03:27;;;;;;;;;;;;;;;8.6;74.52539;102408.4;;;;-72
2023/04/16 03:05:14;;;;;;;7.2;2;;;;;;;;;;;;;-72
2023/04/16 03:08:27;;;;;;;;;;;;;;;8.58;74.50098;102412;;;;-73
2023/04/16 03:13:29;;;;;;;;;;;;;;;8.6;75.34082;102411.1;;;;-72
2023/04/16 03:18:29;;;;;;;;;;;;;;;8.62;74.2959;102418;;;;-72
2023/04/16 03:23:28;;;;;;;;;;;;;;;8.58;75.52539;102420.9;;;;-75
2023/04/16 03:28:28;;;;;;;;;;;;;;;8.63;75.56934;102421.9;;;;-71
2023/04/16 03:33:28;;;;;;;;;;;;;;;8.59;75.09668;102426.9;;;;-72
2023/04/16 03:35:15;;;;;;;7.7;3;;;;;;;;;;;;;-71
2023/04/16 03:38:29;;;;;;;;;;;;;;;8.61;76.22656;102429.1;;;;-72
2023/04/16 03:43:27;;;;;;;;;;;;;;;8.58;75.53613;102427.9;;;;-71
2023/04/16 03:48:27;;;;;;;;;;;;;;;8.55;75.88574;102423.3;;;;-73
2023/04/16 03:53:27;;;;;;;;;;;;;;;8.59;76.17871;102428.6;;;;-72
2023/04/16 03:58:27;;;;;;;;;;;;;;;8.57;75.66699;102425;;;;-72
2023/04/16 04:03:28;;;;;;;;;;;;;;;8.56;76.31543;102422.9;;;;-71
2023/04/16 04:05:16;;;;;;;11;4;;;;;;;;;;;;;-72
2023/04/16 04:08:27;;;;;;;;;;;;;;;8.54;76.01465;102424.2;;;;-72
2023/04/16 04:13:29;;;;;;;;;;;;;;;8.55;75.88379;102422;;;;-71
2023/04/16 04:18:29;;;;;;;;;;;;;;;8.53;76.61816;102427;;;;-72
2023/04/16 04:23:27;;;;;;;;;;;;;;;8.55;75.9834;102426.7;;;;-71
2023/04/16 04:28:27;;;;;;;;;;;;;;;8.53;76.74121;102430.5;;;;-72
2023/04/16 04:33:29;;;;;;;;;;;;;;;8.52;76.26563;102434.2;;;;-72
2023/04/16 04:35:17;;;;;;;11.1;4.2;;;;;;;;;;;;;-72
2023/04/16 04:38:28;;;;;;;;;;;;;;;8.52;76.88281;102434.9;;;;-72
2023/04/16 04:43:29;;;;;;;;;;;;;;;8.52;76.99121;102435.7;;;;-72
2023/04/16 04:48:28;;;;;;;;;;;;;;;8.53;76.24512;102440;;;;-72
2023/04/16 04:53:30;;;;;;;;;;;;;;;8.54;76.8418;102448.7;;;;-73
2023/04/16 04:58:27;;;;;;;;;;;;;;;8.55;77.38184;102447.7;;;;-73
2023/04/16 05:03:27;;;;;;;;;;;;;;;8.52;76.24316;102452;;;;-71
2023/04/16 05:05:20;;;;;;;12.4;4.4;;;;;;;;;;;;;-73
2023/04/16 05:08:27;;;;;;;;;;;;;;;8.54;76.99609;102456.2;;;;-72
2023/04/16 05:13:29;;;;;;;;;;;;;;;8.51;77.34375;102457.6;;;;-72
2023/04/16 05:18:29;;;;;;;;;;;;;;;8.56;77.9248;102458.2;;;;-72
2023/04/16 05:23:27;;;;;;;;;;;;;;;8.5;77.78125;102457.9;;;;-72
2023/04/16 05:28:27;;;;;;;;;;;;;;;8.49;78.35449;102453.5;;;;-72
2023/04/16 05:33:28;;;;;;;;;;;;;;;8.52;77.78516;102456.2;;;;-72
2023/04/16 05:35:20;;;;;;;15.1;4.3;;;;;;;;;;;;;-73
2023/04/16 05:38:30;;;;;;;;;;;;;;;8.53;78.41602;102463.6;;;;-72
2023/04/16 05:43:26;;;;;;;;;;;;;;;8.53;78.16113;102465.5;;;;-72
2023/04/16 05:53:26;;;;;;;;;;;;;;;8.57;77.76172;102475.7;;;;-72
2023/04/16 05:58:26;;;;;;;;;;;;;;;8.53;77.3916;102482.7;;;;-71
2023/04/16 06:03:27;;;;;;;;;;;;;;;8.52;77.88574;102481.3;;;;-75
2023/04/16 06:05:20;;;;;;;10.4;4.4;;;;;;;;;;;;;-71
2023/04/16 06:08:26;;;;;;;;;;;;;;;8.56;77.83691;102486.6;;;;-72
2023/04/16 06:13:26;;;;;;;;;;;;;;;8.55;77.31543;102485.9;;;;-72
2023/04/16 06:18:26;;;;;;;;;;;;;;;8.57;77.69531;102495.8;;;;-73
2023/04/16 06:23:26;;;;;;;;;;;;;;;8.53;77.38965;102493.2;;;;-73
2023/04/16 06:28:26;;;;;;;;;;;;;;;8.55;77.96777;102494.7;;;;-72
2023/04/16 06:33:26;;;;;;;;;;;;;;;8.57;77.77441;102504.9;;;;-71
2023/04/16 06:35:22;;;;;;;14.5;4.3;;;;;;;;;;;;;-72
2023/04/16 06:38:26;;;;;;;;;;;;;;;8.61;78.42969;102503.3;;;;-72
2023/04/16 06:43:26;;;;;;;;;;;;;;;8.66;78.06445;102505.3;;;;-71
2023/04/16 06:48:26;;;;;;;;;;;;;;;8.63;77.81543;102509.6;;;;-72
2023/04/16 06:53:26;;;;;;;;;;;;;;;8.61;77.3623;102515.3;;;;-72
2023/04/16 06:58:26;;;;;;;;;;;;;;;8.63;77.23145;102519.5;;;;-71
2023/04/16 07:03:26;;;;;;;;;;;;;;;8.65;78.2373;102520.3;;;;-72
2023/04/16 07:05:23;;;;;;;9.6;3.9;;;;;;;;;;;;;-72
2023/04/16 07:08:26;;;;;;;;;;;;;;;8.65;78.52539;102524.8;;;;-72
2023/04/16 07:13:26;;;;;;;;;;;;;;;8.69;77.55078;102527.2;;;;-73
2023/04/16 07:18:28;;;;;;;;;;;;;;;8.68;78.16895;102531.7;;;;-72
2023/04/16 07:23:26;;;;;;;;;;;;;;;8.7;78.15918;102532.9;;;;-73
2023/04/16 07:28:26;;;;;;;;;;;;;;;8.73;77.72266;102539.2;;;;-73
2023/04/16 07:33:27;;;;;;;;;;;;;;;8.73;78.375;102540.2;;;;-72
2023/04/16 07:35:24;;;;;;;9.4;4;;;;;;;;;;;;;-72
2023/04/16 07:38:26;;;;;;;;;;;;;;;8.75;78.39844;102549.4;;;;-73
2023/04/16 07:43:26;;;;;;;;;;;;;;;8.77;77.78613;102552.7;;;;-71
2023/04/16 07:48:26;;;;;;;;;;;;;;;8.79;78.06543;102555.3;;;;-71
2023/04/16 07:53:26;;;;;;;;;;;;;;;8.8;79.18164;102560.5;;;;-72
2023/04/16 07:58:26;;;;;;;;;;;;;;;8.86;79.37988;102567.3;;;;-72
2023/04/16 08:03:26;;;;;;;;;;;;;;;8.86;78.37598;102567.5;;;;-72
2023/04/16 08:05:25;;;;;;;10.2;4.3;;;;;;;;;;;;;-72
2023/04/16 08:08:26;;;;;;;;;;;;;;;8.87;79.32617;102567.2;;;;-73
2023/04/16 08:13:26;;;;;;;;;;;;;;;8.89;79.52734;102569.4;;;;-74
2023/04/16 08:18:26;;;;;;;;;;;;;;;8.92;78.87109;102573.1;;;;-72
2023/04/16 08:23:26;;;;;;;;;;;;;;;8.95;78.33691;102577.1;;;;-73
2023/04/16 08:28:26;;;;;;;;;;;;;;;8.99;79.2168;102572.8;;;;-73
2023/04/16 08:33:26;;;;;;;;;;;;;;;9.07;79.47266;102575.8;;;;-71
2023/04/16 08:35:29;;;;;;;11.1;3.9;;;;;;;;;;;;;-72
2023/04/16 08:38:26;;;;;;;;;;;;;;;9.07;79.69141;102575.8;;;;-71
2023/04/16 08:43:26;;;;;;;;;;;;;;;9.12;79.93359;102584.1;;;;-72
2023/04/16 08:48:26;;;;;;;;;;;;;;;9.17;80.15234;102600.7;;;;-72
2023/04/16 08:53:30;;;;;;;;;;;;;;;9.22;80.07324;102601.6;;;;-74
2023/04/16 08:58:26;;;;;;;;;;;;;;;9.25;80.43066;102606.8;;;;-72
2023/04/16 09:03:26;;;;;;;;;;;;;;;9.29;80.59375;102608.5;;;;-72
2023/04/16 09:05:28;;;;;;;9.6;4.3;;;;;;;;;;;;;-71
2023/04/16 09:08:26;;;;;;;;;;;;;;;9.33;80.38184;102609.4;;;;-72
2023/04/16 09:13:26;;;;;;;;;;;;;;;9.38;80.65625;102608.6;;;;-72
2023/04/16 09:18:26;;;;;;;;;;;;;;;9.45;81.00879;102616;;;;-72
2023/04/16 09:23:26;;;;;;;;;;;;;;;9.51;80.50195;102616.2;;;;-72
2023/04/16 09:28:37;;;;;;;;;;;;;;;9.55;81.50293;102620.3;;;;-71
2023/04/16 09:33:26;;;;;;;;;;;;;;;9.62;80.7002;102624.6;;;;-72
2023/04/16 09:35:28;;;;;;;12.6;4.5;;;;;;;;;;;;;-72
2023/04/16 09:38:27;;;;;;;;;;;;;;;9.67;80.32227;102630.1;;;;-73
2023/04/16 09:43:26;;;;;;;;;;;;;;;9.71;79.75488;102635.6;;;;-72
2023/04/16 09:48:35;;;;;;;;;;;;;;;9.71;80.18555;102638.6;;;;-73
2023/04/16 09:53:35;;;;;;;;;;;;;;;9.75;79.85156;102640.7;;;;-71
2023/04/16 09:58:26;;;;;;;;;;;;;;;9.78;80.02344;102645.3;;;;-73
2023/04/16 10:03:33;;;;;;;;;;;;;;;9.82;79.2666;102645.5;;;;-72
2023/04/16 10:05:29;;;;;;;12.9;4.5;;;;;;;;;;;;;-72
2023/04/16 10:08:26;;;;;;;;;;;;;;;9.87;79.40918;102646;;;;-72
2023/04/16 10:13:26;;;;;;;;;;;;;;;9.91;79.26074;102650.1;;;;-73
2023/04/16 10:18:26;;;;;;;;;;;;;;;9.96;79.25977;102653.6;;;;-72
2023/04/16 10:23:26;;;;;;;;;;;;;;;10.02;79.44824;102659.4;;;;-72
2023/04/16 10:28:28;;;;;;;;;;;;;;;10.06;78.93457;102659.8;;;;-72
2023/04/16 10:33:27;;;;;;;;;;;;;;;10.08;78.79395;102664.6;;;;-72
2023/04/16 10:35:32;;;;;;;11;4.6;;;;;;;;;;;;;-73
2023/04/16 10:38:29;;;;;;;;;;;;;;;10.11;79.13086;102670.3;;;;-71
2023/04/16 10:43:28;;;;;;;;;;;;;;;10.15;78.44238;102667.3;;;;-72
2023/04/16 10:48:26;;;;;;;;;;;;;;;10.18;78.61328;102668.9;;;;-72
2023/04/16 10:53:28;;;;;;;;;;;;;;;10.2;78.60547;102672.9;;;;-72
2023/04/16 10:58:37;;;;;;;;;;;;;;;10.25;78.47168;102666.6;;;;-72
2023/04/16 11:03:26;;;;;;;;;;;;;;;10.36;78.52441;102665.6;;;;-71
2023/04/16 11:05:47;;;;;;;12.8;4.8;;;;;;;;;;;;;-72
2023/04/16 11:08:26;;;;;;;;;;;;;;;10.5;78.25;102664.6;;;;-71
2023/04/16 11:13:26;;;;;;;;;;;;;;;10.65;77.46973;102663.8;;;;-72
2023/04/16 11:18:26;;;;;;;;;;;;;;;10.75;77.02148;102661.4;;;;-71
2023/04/16 11:23:26;;;;;;;;;;;;;;;10.83;76.9248;102661.5;;;;-71
2023/04/16 11:28:34;;;;;;;;;;;;;;;10.92;76.97266;102661.4;;;;-72
2023/04/16 11:33:28;;;;;;;;;;;;;;;10.97;76.73828;102665.7;;;;-72
2023/04/16 11:35:33;;;;;;;14.5;5.6;;;;;;;;;;;;;-73
2023/04/16 11:38:35;;;;;;;;;;;;;;;11;76.62305;102667.4;;;;-71
2023/04/16 11:43:26;;;;;;;;;;;;;;;11.02;76.95703;102668.3;;;;-72
2023/04/16 11:48:26;;;;;;;;;;;;;;;11.05;76.77539;102665.8;;;;-72
2023/04/16 11:53:26;;;;;;;;;;;;;;;11.15;76.32715;102666.1;;;;-73
2023/04/16 11:58:26;;;;;;;;;;;;;;;11.3;76.04199;102666.1;;;;-71
2023/04/16 12:03:36;;;;;;;;;;;;;;;11.45;76.59961;102666.1;;;;-71
2023/04/16 12:05:37;;;;;;;17.8;5.8;;;;;;;;;;;;;-72
2023/04/16 12:08:35;;;;;;;;;;;;;;;11.59;75.89258;102666;;;;-71
2023/04/16 12:13:26;;;;;;;;;;;;;;;11.74;75.41895;102666;;;;-72
2023/04/16 12:18:26;;;;;;;;;;;;;;;11.87;74.96191;102666.1;;;;-71
2023/04/16 12:23:33;;;;;;;;;;;;;;;11.99;75.0498;102667.3;;;;-71
2023/04/16 12:28:39;;;;;;;;;;;;;;;12.09;74.57813;102672.5;;;;-72
2023/04/16 12:33:26;;;;;;;;;;;;;;;12.13;74.09473;102669.3;;;;-71
2023/04/16 12:35:37;;;;;;;13.6;5.1;;;;;;;;;;;;;-72
2023/04/16 12:38:26;;;;;;;;;;;;;;;12.15;73.96387;102677.6;;;;-70
2023/04/16 12:43:26;;;;;;;;;;;;;;;12.15;74.05469;102676.1;;;;-70
2023/04/16 12:48:26;;;;;;;;;;;;;;;12.24;74.13672;102683.5;;;;-69
2023/04/16 12:53:26;;;;;;;;;;;;;;;12.3;74.35742;102678.9;;;;-69
2023/04/16 12:58:26;;;;;;;;;;;;;;;12.37;74.37012;102686.9;;;;-70
2023/04/16 13:03:26;;;;;;;;;;;;;;;12.42;74.22168;102686.1;;;;-70
2023/04/16 13:05:38;;;;;;;14;5.7;;;;;;;;;;;;;-69
2023/04/16 13:08:26;;;;;;;;;;;;;;;12.46;74.16113;102686.7;;;;-70
2023/04/16 13:13:26;;;;;;;;;;;;;;;12.5;73.7793;102682.3;;;;-72
2023/04/16 13:18:26;;;;;;;;;;;;;;;12.52;73.69238;102686.2;;;;-70
2023/04/16 13:23:26;;;;;;;;;;;;;;;12.53;73.70605;102685.3;;;;-70
2023/04/16 13:28:25;;;;;;;;;;;;;;;12.5;74.00195;102684.1;;;;-70
2023/04/16 13:33:26;;;;;;;;;;;;;;;12.53;74.27344;102683.7;;;;-69
2023/04/16 13:35:40;;;;;;;13;5.8;;;;;;;;;;;;;-69
2023/04/16 13:38:26;;;;;;;;;;;;;;;12.54;74.06543;102681.1;;;;-71
2023/04/16 13:43:26;;;;;;;;;;;;;;;12.56;73.81055;102679;;;;-70
2023/04/16 13:48:26;;;;;;;;;;;;;;;12.57;73.78027;102682.1;;;;-69
2023/04/16 13:53:26;;;;;;;;;;;;;;;12.58;73.52344;102679;;;;-69
2023/04/16 13:58:26;;;;;;;;;;;;;;;12.56;73.83398;102676.6;;;;-69
2023/04/16 14:03:27;;;;;;;;;;;;;;;12.59;73.91699;102671.2;;;;-70
2023/04/16 14:05:42;;;;;;;13.4;5.8;;;;;;;;;;;;;-70
2023/04/16 14:08:26;;;;;;;;;;;;;;;12.67;73.70801;102673.7;;;;-70
2023/04/16 14:13:26;;;;;;;;;;;;;;;12.71;73.88086;102676.6;;;;-68
2023/04/16 14:18:26;;;;;;;;;;;;;;;12.71;73.74707;102673.8;;;;-70
2023/04/16 14:23:26;;;;;;;;;;;;;;;12.75;73.93164;102683.7;;;;-69
2023/04/16 14:28:26;;;;;;;;;;;;;;;12.75;73.69727;102675.4;;;;-68
2023/04/16 14:33:26;;;;;;;;;;;;;;;12.76;73.64453;102676.5;;;;-68
2023/04/16 14:35:44;;;;;;;14.8;6.3;;;;;;;;;;;;;-69
2023/04/16 14:38:28;;;;;;;;;;;;;;;12.72;73.5166;102679.1;;;;-70
2023/04/16 14:43:26;;;;;;;;;;;;;;;12.68;73.47363;102678.8;;;;-68
2023/04/16 14:48:26;;;;;;;;;;;;;;;12.66;73.72656;102684.2;;;;-68
2023/04/16 14:53:27;;;;;;;;;;;;;;;12.61;73.50586;102682.4;;;;-70
2023/04/16 14:58:26;;;;;;;;;;;;;;;12.54;73.59766;102687;;;;-70
2023/04/16 15:03:26;;;;;;;;;;;;;;;12.5;73.74512;102683.8;;;;-70
2023/04/16 15:05:49;;;;;;;16.6;7.3;;;;;;;;;;;;;-68
2023/04/16 15:08:26;;;;;;;;;;;;;;;12.46;74.32813;102681.2;;;;-69
2023/04/16 15:13:32;;;;;;;;;;;;;;;12.41;75.04395;102681.6;;;;-70
2023/04/16 15:18:26;;;;;;;;;;;;;;;12.37;74.41406;102675.4;;;;-70
2023/04/16 15:23:26;;;;;;;;;;;;;;;12.35;74.54297;102675.1;;;;-68
2023/04/16 15:28:26;;;;;;;;;;;;;;;12.32;74.78516;102675.5;;;;-70
2023/04/16 15:33:29;;;;;;;;;;;;;;;12.34;74.20898;102671.2;;;;-70
2023/04/16 15:35:50;;;;;;;16.2;7.2;;;;;;;;;;;;;-68
2023/04/16 15:38:28;;;;;;;;;;;;;;;12.36;74.71289;102670.1;;;;-69
2023/04/16 15:43:29;;;;;;;;;;;;;;;12.36;74.79004;102668.4;;;;-70
2023/04/16 15:48:26;;;;;;;;;;;;;;;12.37;74.48145;102670.5;;;;-70
2023/04/16 15:53:26;;;;;;;;;;;;;;;12.35;74.27734;102671;;;;-69
2023/04/16 15:58:26;;;;;;;;;;;;;;;12.34;74.27441;102672.5;;;;-69
2023/04/16 16:03:26;;;;;;;;;;;;;;;12.3;74.67969;102670.7;;;;-68
2023/04/16 16:05:50;;;;;;;14.5;7.1;;;;;;;;;;;;;-69
2023/04/16 16:08:26;;;;;;;;;;;;;;;12.24;75.4834;102670.7;;;;-68
2023/04/16 16:13:26;;;;;;;;;;;;;;;12.18;75.41602;102676.5;;;;-71
2023/04/16 16:18:26;;;;;;;;;;;;;;;12.11;75.99316;102675.8;;;;-68
2023/04/16 16:23:25;;;;;;;;;;;;;;;12.06;76.12988;102677.7;;;;-69
2023/04/16 16:28:26;;;;;;;;;;;;;;;11.99;76.31934;102682.3;;;;-69
2023/04/16 16:33:27;;;;;;;;;;;;;;;11.91;76.59375;102688.4;;;;-70
2023/04/16 16:35:52;;;;;;;13.9;7;;;;;;;;;;;;;-69
2023/04/16 16:38:26;;;;;;;;;;;;;;;11.81;76.89648;102689.2;;;;-69
2023/04/16 16:43:26;;;;;;;;;;;;;;;11.72;77.125;102697.5;;;;-70
2023/04/16 16:48:26;;;;;;;;;;;;;;;11.64;77.19922;102694.9;;;;-69
2023/04/16 16:53:26;;;;;;;;;;;;;;;11.59;77.24707;102701;;;;-69
2023/04/16 16:58:26;;;;;;;;;;;;;;;11.51;77.44336;102699.9;;;;-69
2023/04/16 17:03:27;;;;;;;;;;;;;;;11.45;77.33398;102696.9;;;;-69
2023/04/16 17:05:54;;;;;;;14.1;6.9;;;;;;;;;;;;;-70
2023/04/16 17:08:27;;;;;;;;;;;;;;;11.38;77.4209;102698.4;;;;-69
2023/04/16 17:13:26;;;;;;;;;;;;;;;11.32;77.4873;102709;;;;-69
2023/04/16 17:18:26;;;;;;;;;;;;;;;11.25;77.63086;102708.7;;;;-69
2023/04/16 17:23:26;;;;;;;;;;;;;;;11.17;77.58496;102705.4;;;;-70
2023/04/16 17:28:27;;;;;;;;;;;;;;;11.11;77.83789;102702.3;;;;-69
2023/04/16 17:33:26;;;;;;;;;;;;;;;11.04;77.9043;102701;;;;-71
2023/04/16 17:35:55;;;;;;;14.8;7.7;;;;;;;;;;;;;-70
2023/04/16 17:38:25;;;;;;;;;;;;;;;11;77.6748;102704;;;;-71
2023/04/16 17:43:27;;;;;;;;;;;;;;;10.96;77.29102;102707.8;;;;-69
2023/04/16 17:48:28;;;;;;;;;;;;;;;10.93;77.24023;102709.9;;;;-70
2023/04/16 17:53:25;;;;;;;;;;;;;;;10.89;77.41113;102715.7;;;;-70
2023/04/16 17:58:26;;;;;;;;;;;;;;;10.83;77.23535;102713.3;;;;-68
2023/04/16 18:03:26;;;;;;;;;;;;;;;10.8;77.24023;102715;;;;-69
2023/04/16 18:05:59;;;;;;;16.9;8;;;;;;;;;;;;;-70
2023/04/16 18:08:26;;;;;;;;;;;;;;;10.74;77.25293;102725.2;;;;-69
2023/04/16 18:13:26;;;;;;;;;;;;;;;10.7;77.33496;102728.7;;;;-70
2023/04/16 18:18:26;;;;;;;;;;;;;;;10.64;77.22363;102733;;;;-69
2023/04/16 18:23:26;;;;;;;;;;;;;;;10.57;77.32324;102740.3;;;;-70
2023/04/16 18:28:26;;;;;;;;;;;;;;;10.52;77.37891;102740.6;;;;-70
2023/04/16 18:33:25;;;;;;;;;;;;;;;10.46;77.26953;102751.1;;;;-68
2023/04/16 18:35:59;;;;;;;18.5;8.6;;;;;;;;;;;;;-70
2023/04/16 18:38:25;;;;;;;;;;;;;;;10.41;77.58105;102758.4;;;;-69
2023/04/16 18:43:26;;;;;;;;;;;;;;;10.36;77.39551;102763.2;;;;-69
2023/04/16 18:48:27;;;;;;;;;;;;;;;10.31;77.62988;102766.1;;;;-70
2023/04/16 18:53:26;;;;;;;;;;;;;;;10.26;77.69922;102767.6;;;;-70
2023/04/16 18:58:26;;;;;;;;;;;;;;;10.19;76.48145;102777.2;;;;-69
2023/04/16 19:03:28;;;;;;;;;;;;;;;10.12;76.83398;102772;;;;-70
2023/04/16 19:06:01;;;;;;;15.9;8.6;;;;;;;;;;;;;-69
2023/04/16 19:08:26;;;;;;;;;;;;;;;10.07;76.97852;102775.7;;;;-69
2023/04/16 19:18:05;;;;;;;;;;;;;;;9.98;76.36523;102792.1;;;;-70
2023/04/16 19:23:08;;;;;;;;;;;;;;;9.96;76.98145;102794.2;;;;-70
2023/04/16 19:28:05;;;;;;;;;;;;;;;9.92;77.01855;102796.2;;;;-69
2023/04/16 19:33:07;;;;;;;;;;;;;;;9.88;77.32129;102802.4;;;;-69
2023/04/16 19:36:01;;;;;;;17.8;8.7;;;;;;;;;;;;;-70
2023/04/16 19:38:06;;;;;;;;;;;;;;;9.84;76.91504;102801.2;;;;-68
2023/04/16 19:43:06;;;;;;;;;;;;;;;9.8;77.10938;102796.1;;;;-69
2023/04/16 19:48:08;;;;;;;;;;;;;;;9.74;76.63379;102797.2;;;;-71
2023/04/16 19:53:05;;;;;;;;;;;;;;;9.72;76.83008;102798;;;;-70
2023/04/16 19:58:10;;;;;;;;;;;;;;;9.7;77.21191;102797.8;;;;-69
2023/04/16 20:03:07;;;;;;;;;;;;;;;9.65;77.3252;102792.6;;;;-69
2023/04/16 20:06:04;;;;;;;17.2;8.8;;;;;;;;;;;;;-69
2023/04/16 20:08:08;;;;;;;;;;;;;;;9.62;76.90039;102791.8;;;;-70
2023/04/16 20:13:08;;;;;;;;;;;;;;;9.59;77.15918;102797.4;;;;-70
2023/04/16 20:18:09;;;;;;;;;;;;;;;9.56;77.28711;102797.5;;;;-69
2023/04/16 20:23:07;;;;;;;;;;;;;;;9.52;77.22559;102803;;;;-69
2023/04/16 20:28:09;;;;;;;;;;;;;;;9.48;77.25195;102798.9;;;;-68
2023/04/16 20:33:08;;;;;;;;;;;;;;;9.44;77.40918;102799.8;;;;-69
2023/04/16 20:36:04;;;;;;;17.4;8.5;;;;;;;;;;;;;-71
2023/04/16 20:38:05;;;;;;;;;;;;;;;9.4;77.60156;102799.3;;;;-70
2023/04/16 20:43:08;;;;;;;;;;;;;;;9.37;77.45215;102799.4;;;;-69
2023/04/16 20:48:08;;;;;;;;;;;;;;;9.35;77.48047;102792;;;;-69
2023/04/16 20:53:05;;;;;;;;;;;;;;;9.31;78.16016;102793;;;;-69
2023/04/16 20:58:07;;;;;;;;;;;;;;;9.28;78.08691;102792.2;;;;-69
2023/04/16 21:03:05;;;;;;;;;;;;;;;9.26;77.97363;102791.2;;;;-69
2023/04/16 21:06:05;;;;;;;18.4;8.4;;;;;;;;;;;;;-69
2023/04/16 21:08:07;;;;;;;;;;;;;;;9.21;78.1748;102788.7;;;;-70
2023/04/16 21:13:05;;;;;;;;;;;;;;;9.19;78.14844;102787;;;;-69
2023/04/16 21:18:05;;;;;;;;;;;;;;;9.15;78.64941;102786.7;;;;-69
2023/04/16 21:23:07;;;;;;;;;;;;;;;9.12;78.20117;102783.9;;;;-68
2023/04/16 21:28:08;;;;;;;;;;;;;;;9.1;78.46484;102780.7;;;;-69
2023/04/16 21:33:05;;;;;;;;;;;;;;;9.08;78.43945;102783.2;;;;-68
2023/04/16 21:36:06;;;;;;;18.5;9.2;;;;;;;;;;;;;-71
2023/04/16 21:38:13;;;;;;;;;;;;;;;9.06;78.08105;102785.4;;;;-69
2023/04/16 21:43:08;;;;;;;;;;;;;;;9.03;78.12012;102781;;;;-69
2023/04/16 21:48:05;;;;;;;;;;;;;;;9.01;78.3916;102787;;;;-70
2023/04/16 21:53:08;;;;;;;;;;;;;;;8.98;78.54102;102784.3;;;;-70
2023/04/16 21:58:05;;;;;;;;;;;;;;;8.93;78.33203;102786.5;;;;-69
2023/04/16 22:03:07;;;;;;;;;;;;;;;8.91;78.87109;102784.5;;;;-68
2023/04/16 22:06:07;;;;;;;19.4;9.2;;;;;;;;;;;;;-70
2023/04/16 22:08:07;;;;;;;;;;;;;;;8.89;78.9873;102785.4;;;;-70
2023/04/16 22:13:11;;;;;;;;;;;;;;;8.86;78.53027;102787.7;;;;-69
2023/04/16 22:18:08;;;;;;;;;;;;;;;8.82;78.81055;102791.5;;;;-70
2023/04/16 22:23:05;;;;;;;;;;;;;;;8.8;78.62891;102788.5;;;;-70
2023/04/16 22:28:06;;;;;;;;;;;;;;;8.79;78.68262;102787.1;;;;-70
2023/04/16 22:33:06;;;;;;;;;;;;;;;8.77;78.91211;102786.9;;;;-71
2023/04/16 22:36:09;;;;;;;18.2;9;;;;;;;;;;;;;-70
2023/04/16 22:38:07;;;;;;;;;;;;;;;8.75;78.96387;102783.2;;;;-70
2023/04/16 22:43:08;;;;;;;;;;;;;;;8.73;78.28516;102783.1;;;;-70
2023/04/16 22:48:05;;;;;;;;;;;;;;;8.72;78.72461;102786.2;;;;-70
2023/04/16 22:53:05;;;;;;;;;;;;;;;8.7;78.64453;102784.2;;;;-70
2023/04/16 22:58:05;;;;;;;;;;;;;;;8.67;79.27832;102781;;;;-68
2023/04/16 23:03:07;;;;;;;;;;;;;;;8.66;78.8252;102789;;;;-69
2023/04/16 23:06:11;;;;;;;17.3;8.9;;;;;;;;;;;;;-68
2023/04/16 23:08:05;;;;;;;;;;;;;;;8.66;79.13379;102791.8;;;;-70
2023/04/16 23:13:05;;;;;;;;;;;;;;;8.65;79.04395;102789.5;;;;-68
2023/04/16 23:18:05;;;;;;;;;;;;;;;8.62;78.93945;102792.2;;;;-70
2023/04/16 23:23:07;;;;;;;;;;;;;;;8.59;79.49609;102792.1;;;;-69
2023/04/16 23:28:05;;;;;;;;;;;;;;;8.57;78.8877;102794;;;;-69
2023/04/16 23:33:08;;;;;;;;;;;;;;;8.57;79.03809;102794.9;;;;-68
2023/04/16 23:36:11;;;;;;;18.1;8.6;;;;;;;;;;;;;-70
2023/04/16 23:38:08;;;;;;;;;;;;;;;8.55;78.81445;102790.9;;;;-69
2023/04/16 23:43:06;;;;;;;;;;;;;;;8.53;78.93457;102793.8;;;;-70
2023/04/16 23:48:07;;;;;;;;;;;;;;;8.52;79.34961;102795.9;;;;-69
2023/04/16 23:53:05;;;;;;;;;;;;;;;8.52;79.16211;102796.4;;;;-69
2023/04/16 23:58:08;;;;;;;;;;;;;;;8.5;79.04883;102800.5;;;;-70
